Time;durP1;ratioP1;P1;durP2;ratioP2;P2;SDS_P1;SDS_P2;PMS_P1;PMS_P2;Temp;Humidity;BMP_temperature;BMP_pressure;BME280_temperature;BME280_humidity;BME280_pressure;Samples;Min_cycle;Max_cycle;Signal;HPM_P1;HPM_P2
2023/11/10 00:00:45;;;;;;;13.70;8.30;;;;;;;18.80;40.84;101409.75;103766;1284;61392;-83
2023/11/10 00:03:12;;;;;;;12.90;8.40;;;;;;;18.80;40.95;101407.24;103622;1287;61225;-83
2023/11/10 00:05:37;;;;;;;14.10;8.60;;;;;;;18.80;40.77;101401.20;103748;1283;61437;-82
2023/11/10 00:08:03;;;;;;;15.40;8.40;;;;;;;18.80;40.89;101399.02;103635;1285;61348;-83
2023/11/10 00:10:29;;;;;;;12.40;8.10;;;;;;;18.80;40.78;101400.80;103692;1282;61893;-83
2023/11/10 00:12:55;;;;;;;13.40;8.40;;;;;;;18.80;40.78;101392.63;103933;1282;61350;-83
2023/11/10 00:15:24;;;;;;;13.40;8.20;;;;;;;18.80;40.87;101387.79;103851;1282;61669;-84
2023/11/10 00:17:50;;;;;;;14.30;8.50;;;;;;;18.80;40.92;101387.42;103851;1282;61305;-83
2023/11/10 00:20:16;;;;;;;13.20;7.90;;;;;;;18.80;40.77;101381.55;104014;1282;61876;-84
2023/11/10 00:22:42;;;;;;;12.00;8.20;;;;;;;18.80;40.74;101379.23;103610;1282;62567;-84
2023/11/10 00:25:08;;;;;;;13.60;8.60;;;;;;;18.80;40.94;101374.95;103915;1282;61295;-83
2023/11/10 00:27:34;;;;;;;11.90;8.30;;;;;;;18.80;40.85;101371.40;103738;1288;62261;-83
2023/11/10 00:30:00;;;;;;;11.00;7.70;;;;;;;18.80;40.70;101375.32;103967;1282;61723;-82
2023/11/10 00:32:26;;;;;;;12.70;7.80;;;;;;;18.80;40.70;101374.45;103741;1282;61388;-84
2023/11/10 00:34:52;;;;;;;12.00;7.90;;;;;;;18.80;40.67;101369.98;103777;1287;62627;-83
2023/11/10 00:37:18;;;;;;;13.10;7.90;;;;;;;18.79;40.72;101371.95;103812;1282;74528;-82
2023/11/10 00:39:44;;;;;;;12.90;8.20;;;;;;;18.80;40.73;101373.71;103848;1282;61792;-82
2023/11/10 00:42:09;;;;;;;11.70;8.20;;;;;;;18.80;40.63;101369.28;103446;1286;61551;-84
2023/11/10 00:44:35;;;;;;;13.00;8.20;;;;;;;18.80;40.72;101366.94;103469;1285;62301;-82
2023/11/10 00:47:01;;;;;;;14.10;8.10;;;;;;;18.79;40.71;101368.05;103285;1293;61491;-85
2023/11/10 00:49:27;;;;;;;12.50;7.60;;;;;;;18.80;40.77;101368.58;103569;1285;61851;-83
2023/11/10 00:51:54;;;;;;;12.30;7.50;;;;;;;18.79;40.65;101365.36;103493;1288;61468;-82
2023/11/10 00:54:20;;;;;;;12.60;7.40;;;;;;;18.79;40.78;101366.62;103475;1285;61371;-85
2023/11/10 00:56:45;;;;;;;11.60;7.70;;;;;;;18.79;40.70;101368.05;103525;1285;61474;-84
2023/11/10 00:59:11;;;;;;;12.90;7.80;;;;;;;18.79;40.71;101365.38;103561;1285;61416;-83
2023/11/10 01:01:37;;;;;;;11.60;7.80;;;;;;;18.79;40.64;101364.66;103482;1285;61378;-83
2023/11/10 01:04:06;;;;;;;12.50;7.50;;;;;;;18.79;40.74;101365.04;103626;1285;62443;-83
2023/11/10 01:06:32;;;;;;;12.50;7.70;;;;;;;18.79;40.55;101365.73;103484;1285;61337;-83
2023/11/10 01:08:57;;;;;;;12.80;7.40;;;;;;;18.78;40.61;101366.66;103567;1285;61307;-83
2023/11/10 01:11:26;;;;;;;10.00;6.90;;;;;;;18.79;40.66;101365.20;103427;1289;61376;-83
2023/11/10 01:13:52;;;;;;;11.20;7.40;;;;;;;18.78;40.64;101363.64;103386;1287;61383;-82
2023/11/10 01:16:18;;;;;;;12.10;7.60;;;;;;;18.78;40.61;101368.43;103275;1293;62065;-83
2023/11/10 01:18:46;;;;;;;11.90;7.60;;;;;;;18.79;40.58;101368.09;103590;1285;62672;-84
2023/11/10 01:21:12;;;;;;;13.70;7.60;;;;;;;18.78;40.67;101363.80;103786;1282;74691;-83
2023/11/10 01:23:38;;;;;;;11.20;7.50;;;;;;;18.78;40.57;101360.78;103921;1281;61313;-83
2023/11/10 01:26:04;;;;;;;13.30;7.40;;;;;;;18.78;40.64;101358.48;103793;1282;62539;-84
2023/11/10 01:28:29;;;;;;;12.40;7.30;;;;;;;18.78;40.58;101354.91;103765;1282;62276;-83
2023/11/10 01:30:55;;;;;;;12.10;7.40;;;;;;;18.78;40.63;101353.31;103772;1286;61311;-83
2023/11/10 01:33:21;;;;;;;10.30;6.80;;;;;;;18.78;40.56;101348.13;103926;1282;62550;-83
2023/11/10 01:35:47;;;;;;;10.90;7.20;;;;;;;18.78;40.50;101349.02;103756;1281;62077;-83
2023/11/10 01:38:14;;;;;;;11.40;7.30;;;;;;;18.77;40.66;101340.85;103614;1285;61374;-83
2023/11/10 01:41:03;;;;;;;12.40;7.40;;;;;;;18.78;40.66;101336.91;103880;1283;72447;-83
2023/11/10 01:43:30;;;;;;;11.80;7.20;;;;;;;18.77;40.64;101335.88;103299;1288;73788;-83
2023/11/10 01:45:55;;;;;;;11.50;7.00;;;;;;;18.77;40.47;101328.03;103248;1289;61481;-83
2023/11/10 01:48:21;;;;;;;11.30;7.40;;;;;;;18.77;40.55;101328.38;103350;1289;61795;-82
2023/11/10 01:50:47;;;;;;;10.80;7.10;;;;;;;18.77;40.65;101324.27;103413;1289;61417;-84
2023/11/10 01:53:13;;;;;;;12.90;7.10;;;;;;;18.77;40.59;101324.64;103351;1289;61386;-84
2023/11/10 01:55:41;;;;;;;10.80;7.00;;;;;;;18.77;40.43;101325.89;103054;1294;62604;-83
2023/11/10 01:58:07;;;;;;;13.10;7.20;;;;;;;18.76;40.40;101321.11;103255;1289;61391;-83
2023/11/10 02:00:32;;;;;;;10.60;6.80;;;;;;;18.76;40.49;101321.11;103379;1294;62431;-83
2023/11/10 02:03:04;;;;;;;10.80;6.90;;;;;;;18.76;40.48;101315.77;103125;1293;61578;-82
2023/11/10 02:05:30;;;;;;;12.20;7.00;;;;;;;18.76;40.47;101309.70;103151;1293;74690;-83
2023/11/10 02:07:57;;;;;;;13.20;7.30;;;;;;;18.76;40.59;101309.35;103342;1290;61381;-84
2023/11/10 02:10:23;;;;;;;9.60;6.90;;;;;;;18.76;40.46;101306.86;103113;1289;61588;-85
2023/11/10 02:12:53;;;;;;;11.10;7.00;;;;;;;18.75;40.49;101300.63;103356;1291;61361;-84
2023/11/10 02:15:19;;;;;;;11.20;6.60;;;;;;;18.75;40.31;101304.04;103298;1289;74365;-83
2023/11/10 02:17:45;;;;;;;12.10;7.30;;;;;;;18.75;40.48;101304.74;103255;1288;61753;-83
2023/11/10 02:20:11;;;;;;;10.10;6.60;;;;;;;18.76;40.37;101310.06;103542;1282;61499;-83
2023/11/10 02:22:46;;;;;;;10.40;6.70;;;;;;;18.76;40.44;101309.90;103915;1285;61300;-83
2023/11/10 02:25:14;;;;;;;11.40;7.10;;;;;;;18.75;40.43;101314.75;103716;1282;74399;-83
2023/11/10 02:27:40;;;;;;;10.40;6.80;;;;;;;18.75;40.41;101316.33;103902;1282;61326;-82
2023/11/10 02:30:08;;;;;;;12.70;6.90;;;;;;;18.75;40.35;101316.36;103821;1283;61384;-84
2023/11/10 02:32:33;;;;;;;11.40;6.80;;;;;;;18.75;40.25;101322.80;103630;1282;71720;-83
2023/11/10 02:35:00;;;;;;;10.20;6.60;;;;;;;18.75;40.30;101321.73;103722;1281;61421;-83
2023/11/10 02:37:26;;;;;;;11.00;6.30;;;;;;;18.75;40.43;101322.95;103610;1290;61394;-83
2023/11/10 02:39:51;;;;;;;10.30;6.70;;;;;;;18.75;40.39;101322.60;103952;1281;61294;-83
2023/11/10 02:42:19;;;;;;;10.80;6.30;;;;;;;18.75;40.30;101319.77;103813;1284;61446;-84
2023/11/10 02:44:45;;;;;;;11.30;6.70;;;;;;;18.75;40.29;101319.95;103727;1282;61351;-83
2023/11/10 02:47:10;;;;;;;9.40;6.50;;;;;;;18.75;40.25;101320.30;103823;1282;61374;-84
2023/11/10 02:49:38;;;;;;;11.60;6.70;;;;;;;18.74;40.13;101322.98;103816;1287;61387;-83
2023/11/10 02:52:04;;;;;;;10.30;6.40;;;;;;;18.74;40.31;101323.17;103710;1282;61366;-82
2023/11/10 02:54:29;;;;;;;12.60;7.20;;;;;;;18.75;40.40;101318.53;103878;1282;61279;-84
2023/11/10 02:56:57;;;;;;;10.00;6.50;;;;;;;18.74;40.27;101320.69;103825;1286;61396;-84
2023/11/10 02:59:23;;;;;;;11.90;7.20;;;;;;;18.74;40.28;101315.36;103801;1282;61343;-83
2023/11/10 03:01:49;;;;;;;9.60;6.40;;;;;;;18.74;40.28;101313.92;103999;1282;62539;-82
2023/11/10 03:04:15;;;;;;;11.60;6.60;;;;;;;18.73;40.19;101305.77;103855;1284;61352;-83
2023/11/10 03:06:41;;;;;;;9.90;6.70;;;;;;;18.73;40.23;101306.30;103957;1282;61765;-83
2023/11/10 03:09:07;;;;;;;9.40;6.50;;;;;;;18.73;40.18;101302.73;103857;1282;61289;-80
2023/11/10 03:11:33;;;;;;;10.40;6.40;;;;;;;18.73;40.30;101307.74;103883;1282;62320;-83
2023/11/10 03:13:59;;;;;;;9.30;6.20;;;;;;;18.73;40.16;101310.59;103789;1288;62943;-83
2023/11/10 03:16:24;;;;;;;10.20;6.40;;;;;;;18.73;40.25;101311.30;103800;1286;62444;-83
2023/11/10 03:18:53;;;;;;;13.30;7.00;;;;;;;18.72;40.19;101308.66;103843;1282;61446;-82
2023/11/10 03:21:19;;;;;;;10.60;7.10;;;;;;;18.72;40.17;101310.79;103951;1282;61643;-84
2023/11/10 03:23:46;;;;;;;10.90;7.00;;;;;;;18.72;40.16;101305.80;103691;1282;62488;-83
2023/11/10 03:26:12;;;;;;;11.60;7.20;;;;;;;18.72;40.18;101301.73;103752;1288;61471;-82
2023/11/10 03:28:37;;;;;;;8.90;6.60;;;;;;;18.72;40.20;101303.16;103796;1282;61472;-83
2023/11/10 03:31:13;;;;;;;9.70;6.50;;;;;;;18.72;40.05;101299.39;103821;1284;61417;-84
2023/11/10 03:33:42;;;;;;;10.40;6.70;;;;;;;18.72;40.12;101295.33;103961;1282;62459;-83
2023/11/10 03:36:09;;;;;;;10.80;6.70;;;;;;;18.72;40.00;101297.27;103743;1282;74229;-83
2023/11/10 03:38:57;;;;;;;9.20;6.50;;;;;;;18.71;40.01;101291.23;104003;1281;61337;-83
2023/11/10 03:41:23;;;;;;;10.50;6.60;;;;;;;18.71;40.08;101291.61;103174;1291;61559;-83
2023/11/10 03:43:49;;;;;;;10.00;7.20;;;;;;;18.71;40.11;101301.61;103116;1289;61506;-83
2023/11/10 03:46:14;;;;;;;9.70;6.50;;;;;;;18.71;39.93;101299.44;103137;1290;62922;-83
2023/11/10 03:48:40;;;;;;;12.20;7.00;;;;;;;18.71;40.00;101293.06;103035;1291;61431;-83
2023/11/10 03:51:12;;;;;;;12.30;6.80;;;;;;;18.70;40.10;101293.25;103035;1291;61378;-83
2023/11/10 03:53:40;;;;;;;9.50;6.70;;;;;;;18.71;39.95;101294.13;102924;1291;73414;-83
2023/11/10 03:56:06;;;;;;;9.60;6.70;;;;;;;18.71;39.86;101296.27;102980;1291;73262;-84
2023/11/10 03:58:32;;;;;;;10.30;6.90;;;;;;;18.71;40.02;101300.02;103242;1290;61593;-83
2023/11/10 04:01:00;;;;;;;10.30;7.20;;;;;;;18.70;40.00;101297.52;102975;1291;61511;-82
2023/11/10 04:03:26;;;;;;;10.90;7.00;;;;;;;18.70;39.90;101299.13;102960;1295;62469;-84
2023/11/10 04:05:52;;;;;;;10.60;7.20;;;;;;;18.71;39.92;101294.66;103114;1293;61449;-84
2023/11/10 04:08:18;;;;;;;10.60;6.90;;;;;;;18.70;39.88;101287.37;103231;1289;62267;-83
2023/11/10 04:10:44;;;;;;;9.90;6.50;;;;;;;18.70;39.81;101284.00;103192;1289;61458;-83
2023/11/10 04:13:09;;;;;;;13.10;7.00;;;;;;;18.70;39.88;101283.30;102983;1291;61764;-83
2023/11/10 04:15:35;;;;;;;11.00;7.30;;;;;;;18.69;39.78;101274.75;103147;1291;61549;-83
2023/11/10 04:18:01;;;;;;;11.60;6.60;;;;;;;18.69;39.86;101269.78;103036;1291;61622;-85
2023/11/10 04:20:28;;;;;;;10.80;7.00;;;;;;;18.69;40.04;101273.70;103976;1282;61377;-84
2023/11/10 04:22:54;;;;;;;10.00;7.10;;;;;;;18.69;39.92;101277.11;103969;1283;61366;-84
2023/11/10 04:25:20;;;;;;;11.60;7.10;;;;;;;18.69;39.84;101282.45;103735;1287;61423;-83
2023/11/10 04:27:46;;;;;;;10.70;7.40;;;;;;;18.69;39.91;101284.59;103583;1282;63027;-83
2023/11/10 04:30:16;;;;;;;12.50;7.10;;;;;;;18.69;39.79;101284.07;103913;1283;61378;-83
2023/11/10 04:32:42;;;;;;;9.30;6.70;;;;;;;18.68;39.81;101279.46;104013;1283;61375;-83
2023/11/10 04:35:09;;;;;;;10.00;6.80;;;;;;;18.68;39.88;101273.94;103840;1284;61252;-83
2023/11/10 04:37:35;;;;;;;10.40;7.40;;;;;;;18.68;39.77;101274.33;103824;1282;61384;-82
2023/11/10 04:40:00;;;;;;;10.40;6.90;;;;;;;18.68;39.63;101272.36;103920;1284;61374;-82
2023/11/10 04:42:28;;;;;;;12.10;7.50;;;;;;;18.67;39.71;101275.98;103729;1282;61478;-82
2023/11/10 04:44:54;;;;;;;10.50;7.00;;;;;;;18.65;39.65;101274.45;103547;1289;62572;-84
2023/11/10 04:47:19;;;;;;;11.40;7.80;;;;;;;18.63;39.71;101268.70;103796;1284;61742;-81
2023/11/10 04:49:45;;;;;;;11.90;7.90;;;;;;;18.60;39.56;101272.59;103884;1282;61362;-81
2023/11/10 04:52:12;;;;;;;11.80;7.70;;;;;;;18.58;39.33;101271.27;103710;1287;61261;-83
2023/11/10 04:54:41;;;;;;;12.50;8.00;;;;;;;18.57;39.33;101271.31;103567;1287;61392;-81
2023/11/10 04:57:06;;;;;;;13.10;7.80;;;;;;;18.56;39.24;101277.42;103563;1286;61685;-82
2023/11/10 04:59:33;;;;;;;12.50;8.70;;;;;;;18.57;39.08;101280.79;103753;1287;61382;-81
2023/11/10 05:02:08;;;;;;;16.30;8.50;;;;;;;18.56;39.11;101281.16;103838;1282;62640;-81
2023/11/10 05:04:39;;;;;;;12.20;7.30;;;;;;;18.55;39.06;101278.54;103672;1287;71485;-81
2023/11/10 05:07:08;;;;;;;12.90;7.60;;;;;;;18.56;39.06;101269.60;103949;1282;73513;-83
2023/11/10 05:09:35;;;;;;;12.20;7.70;;;;;;;18.57;39.20;101266.89;103813;1287;61251;-82
2023/11/10 05:12:02;;;;;;;13.00;7.60;;;;;;;18.58;39.24;101271.45;103982;1282;61302;-82
2023/11/10 05:14:28;;;;;;;13.10;8.10;;;;;;;18.58;39.22;101276.07;104149;1282;72407;-83
2023/11/10 05:16:53;;;;;;;10.30;7.40;;;;;;;18.59;39.26;101283.71;104037;1283;61379;-81
2023/11/10 05:19:19;;;;;;;12.70;7.80;;;;;;;18.58;39.28;101282.64;103843;1282;61757;-83
2023/11/10 05:21:45;;;;;;;12.70;8.50;;;;;;;18.58;39.14;101279.27;103752;1286;61346;-82
2023/11/10 05:24:12;;;;;;;12.20;8.10;;;;;;;18.58;39.22;101281.23;103891;1284;61225;-82
2023/11/10 05:26:40;;;;;;;15.00;9.30;;;;;;;18.59;39.24;101277.63;103836;1287;61740;-82
2023/11/10 05:29:06;;;;;;;14.70;9.10;;;;;;;18.59;38.96;101279.93;103881;1288;61374;-82
2023/11/10 05:31:34;;;;;;;16.00;10.00;;;;;;;18.59;38.98;101274.60;103750;1282;61426;-83
2023/11/10 05:34:03;;;;;;;15.30;10.10;;;;;;;18.59;38.91;101270.30;103805;1287;61263;-82
2023/11/10 05:36:29;;;;;;;15.90;9.20;;;;;;;18.60;38.60;101271.00;104022;1282;74369;-82
2023/11/10 05:38:56;;;;;;;20.20;10.40;;;;;;;18.60;38.54;101267.79;104007;1285;61432;-83
2023/11/10 05:41:21;;;;;;;14.50;9.40;;;;;;;18.61;38.41;101271.28;104155;1281;62455;-82
2023/11/10 05:43:47;;;;;;;13.90;8.80;;;;;;;18.63;38.55;101269.93;104598;1287;61432;-81
2023/11/10 05:46:14;;;;;;;16.00;10.00;;;;;;;18.65;38.56;101270.91;104612;1282;61406;-83
2023/11/10 05:48:41;;;;;;;13.00;9.20;;;;;;;18.66;38.50;101278.48;104496;1282;61487;-80
2023/11/10 05:51:06;;;;;;;12.60;9.40;;;;;;;18.68;38.40;101280.38;104843;1282;61266;-80
2023/11/10 05:53:32;;;;;;;13.80;10.20;;;;;;;18.69;38.37;101284.22;104694;1281;62158;-81
2023/11/10 05:56:00;;;;;;;17.40;10.30;;;;;;;18.71;38.19;101280.55;104707;1283;61211;-81
2023/11/10 05:58:32;;;;;;;14.60;9.90;;;;;;;18.72;38.07;101274.81;104751;1286;61315;-81
2023/11/10 06:00:57;;;;;;;19.30;10.30;;;;;;;18.72;38.07;101281.73;105047;1282;61243;-82
2023/11/10 06:03:23;;;;;;;17.80;10.30;;;;;;;18.72;37.99;101282.07;104875;1288;61413;-83
2023/11/10 06:05:49;;;;;;;16.80;10.50;;;;;;;18.74;38.07;101279.70;105601;1283;61291;-82
2023/11/10 06:08:16;;;;;;;18.80;10.80;;;;;;;18.75;37.92;101276.05;105365;1282;61290;-81
2023/11/10 06:10:43;;;;;;;23.60;10.20;;;;;;;18.77;37.79;101276.52;106743;1281;59367;-81
2023/11/10 06:13:09;;;;;;;19.00;10.70;;;;;;;18.80;37.77;101274.76;106198;1282;58949;-82
2023/11/10 06:15:35;;;;;;;15.20;9.80;;;;;;;18.83;37.74;101270.09;105398;1281;61234;-82
2023/11/10 06:18:00;;;;;;;18.60;10.40;;;;;;;18.88;37.76;101274.51;105434;1282;61477;-81
2023/11/10 06:20:26;;;;;;;17.60;9.90;;;;;;;18.93;37.51;101284.03;105451;1282;61379;-80
2023/11/10 06:22:52;;;;;;;14.70;9.30;;;;;;;18.97;37.46;101281.87;105730;1283;59616;-81
2023/11/10 06:25:17;;;;;;;16.80;9.30;;;;;;;19.01;37.44;101282.17;105473;1282;72803;-80
2023/11/10 06:27:46;;;;;;;27.80;10.00;;;;;;;19.04;37.39;101285.23;105367;1284;75569;-81
2023/11/10 06:30:12;;;;;;;25.30;9.70;;;;;;;19.06;37.29;101288.16;105434;1283;61292;-80
2023/11/10 06:32:37;;;;;;;20.90;9.60;;;;;;;19.07;37.14;101291.84;105494;1282;59266;-81
2023/11/10 06:35:03;;;;;;;28.60;10.40;;;;;;;19.08;37.20;101288.06;105199;1282;61429;-80
2023/11/10 06:37:29;;;;;;;26.30;9.60;;;;;;;19.10;37.12;101288.11;105155;1282;61285;-81
2023/11/10 06:39:54;;;;;;;25.20;9.80;;;;;;;19.12;37.26;101286.06;105319;1282;61293;-81
2023/11/10 06:42:20;;;;;;;30.00;9.70;;;;;;;19.15;37.17;101288.41;105487;1281;61237;-82
2023/11/10 06:44:47;;;;;;;26.30;9.50;;;;;;;19.16;37.17;101292.41;105262;1285;61276;-80
2023/11/10 06:47:12;;;;;;;26.90;9.80;;;;;;;19.19;37.13;101297.09;105097;1282;61801;-81
2023/11/10 06:49:38;;;;;;;21.20;9.00;;;;;;;19.21;37.36;101294.86;105484;1283;61265;-82
2023/11/10 06:52:04;;;;;;;20.20;9.10;;;;;;;19.22;37.22;101298.34;105049;1280;61314;-81
2023/11/10 06:54:30;;;;;;;21.60;9.50;;;;;;;19.22;37.32;101297.45;105595;1287;61226;-83
2023/11/10 06:56:58;;;;;;;21.10;8.70;;;;;;;19.20;37.61;101298.12;105679;1282;61250;-81
2023/11/10 06:59:26;;;;;;;17.50;9.50;;;;;;;19.16;37.97;101298.51;106410;1288;59509;-82
2023/11/10 07:01:53;;;;;;;29.10;9.80;;;;;;;19.12;38.16;101292.98;106712;1282;60179;-82
2023/11/10 07:04:19;;;;;;;22.40;10.50;;;;;;;19.09;38.22;101296.55;106798;1281;60020;-82
2023/11/10 07:06:45;;;;;;;23.30;9.90;;;;;;;19.07;38.37;101293.79;106617;1282;59775;-82
2023/11/10 07:09:12;;;;;;;23.60;10.30;;;;;;;19.08;38.55;101291.98;106800;1284;60249;-82
2023/11/10 07:11:40;;;;;;;17.50;9.20;;;;;;;19.08;38.53;101288.92;106619;1286;58724;-82
2023/11/10 07:14:06;;;;;;;19.00;9.20;;;;;;;19.10;38.47;101291.88;106637;1286;60250;-82
2023/11/10 07:16:32;;;;;;;19.60;8.80;;;;;;;19.12;38.40;101290.67;106625;1285;59252;-82
2023/11/10 07:18:59;;;;;;;17.20;9.50;;;;;;;19.14;38.49;101288.96;106681;1281;58903;-83
2023/11/10 07:21:29;;;;;;;18.30;9.30;;;;;;;19.16;38.48;101285.49;106012;1281;61955;-83
2023/11/10 07:23:55;;;;;;;19.70;9.40;;;;;;;19.18;38.52;101286.09;105654;1282;61459;-82
2023/11/10 07:26:21;;;;;;;23.70;8.90;;;;;;;19.19;38.48;101280.12;105643;1285;59751;-82
2023/11/10 07:28:47;;;;;;;24.10;9.90;;;;;;;19.21;38.50;101268.59;105635;1286;61425;-82
2023/11/10 07:31:13;;;;;;;19.10;9.50;;;;;;;19.23;38.62;101264.58;105424;1285;60517;-82
2023/11/10 07:33:38;;;;;;;17.80;8.60;;;;;;;19.24;38.55;101266.42;105405;1288;59550;-82
2023/11/10 07:36:04;;;;;;;19.60;9.70;;;;;;;19.26;38.63;101257.45;105333;1286;61352;-81
2023/11/10 07:38:30;;;;;;;20.10;9.30;;;;;;;19.27;38.66;101254.70;105256;1286;61637;-81
2023/11/10 07:40:56;;;;;;;27.10;9.00;;;;;;;19.29;38.66;101254.95;105330;1286;59832;-81
2023/11/10 07:43:22;;;;;;;21.00;9.90;;;;;;;19.30;38.82;101248.63;105651;1286;61234;-81
2023/11/10 07:45:48;;;;;;;24.00;9.40;;;;;;;19.32;39.06;101246.23;105368;1286;59833;-81
2023/11/10 07:48:13;;;;;;;19.30;9.10;;;;;;;19.34;39.08;101249.86;105012;1290;71446;-81
2023/11/10 07:50:39;;;;;;;20.80;9.40;;;;;;;19.35;39.34;101246.92;105450;1286;61355;-81
2023/11/10 07:53:05;;;;;;;23.90;9.70;;;;;;;19.37;39.53;101242.91;105262;1286;61260;-81
2023/11/10 07:55:31;;;;;;;24.90;10.90;;;;;;;19.38;39.56;101249.59;105332;1291;59569;-81
2023/11/10 07:57:57;;;;;;;27.20;9.80;;;;;;;19.35;39.66;101251.40;105409;1286;61201;-82
2023/11/10 08:00:22;;;;;;;23.50;10.50;;;;;;;19.30;39.91;101244.00;105293;1288;61299;-82
2023/11/10 08:02:53;;;;;;;29.20;9.60;;;;;;;19.25;39.80;101238.03;105580;1282;61174;-82
2023/11/10 08:05:20;;;;;;;24.40;10.30;;;;;;;19.20;39.96;101239.19;105546;1286;61097;-82
2023/11/10 08:07:47;;;;;;;20.70;9.10;;;;;;;19.18;40.01;101240.77;105274;1282;60308;-82
2023/11/10 08:10:16;;;;;;;18.60;9.60;;;;;;;19.15;39.90;101232.55;106772;1283;72480;-82
2023/11/10 08:12:43;;;;;;;18.80;9.70;;;;;;;19.13;39.95;101224.09;105581;1283;74405;-82
2023/11/10 08:15:09;;;;;;;19.30;9.50;;;;;;;19.11;39.71;101224.74;105118;1282;61629;-83
2023/11/10 08:17:35;;;;;;;15.90;9.20;;;;;;;19.09;39.72;101227.86;104986;1280;61451;-83
2023/11/10 08:20:01;;;;;;;15.20;9.30;;;;;;;19.08;39.73;101224.73;104860;1283;61372;-83
2023/11/10 08:22:27;;;;;;;17.90;8.50;;;;;;;19.06;39.51;101222.14;105382;1286;61317;-83
2023/11/10 08:24:55;;;;;;;14.60;8.50;;;;;;;19.05;39.51;101219.36;105288;1282;61421;-82
2023/11/10 08:27:22;;;;;;;12.80;8.40;;;;;;;19.03;39.37;101218.73;104823;1283;312671;-83
2023/11/10 08:29:48;;;;;;;14.10;8.80;;;;;;;19.02;39.40;101214.70;105164;1283;72543;-83
2023/11/10 08:32:14;;;;;;;16.50;8.50;;;;;;;19.00;39.33;101211.75;105102;1284;61247;-83
2023/11/10 08:34:40;;;;;;;14.20;8.60;;;;;;;18.99;39.33;101208.43;105325;1285;61272;-83
2023/11/10 08:37:05;;;;;;;16.10;8.90;;;;;;;18.98;39.17;101205.80;105222;1285;62643;-82
2023/11/10 08:39:31;;;;;;;13.70;7.70;;;;;;;18.97;39.13;101201.83;105452;1283;61437;-81
2023/11/10 08:41:58;;;;;;;15.60;9.10;;;;;;;18.96;39.06;101203.27;105613;1283;61289;-80
2023/11/10 08:44:23;;;;;;;12.60;7.90;;;;;;;18.94;38.99;101202.63;105470;1283;61384;-80
2023/11/10 08:46:52;;;;;;;14.20;8.10;;;;;;;18.96;38.98;101199.91;105515;1288;61641;-80
2023/11/10 08:49:18;;;;;;;16.50;8.30;;;;;;;18.97;39.02;101193.02;105129;1287;61382;-81
2023/11/10 08:51:44;;;;;;;18.20;7.70;;;;;;;18.99;38.92;101184.36;105663;1285;61363;-83
2023/11/10 08:54:10;;;;;;;20.80;8.00;;;;;;;19.02;38.97;101181.89;105336;1288;61020;-81
2023/11/10 08:56:38;;;;;;;18.50;7.90;;;;;;;19.04;39.11;101171.42;105491;1288;61695;-81
2023/11/10 08:59:04;;;;;;;17.50;9.30;;;;;;;19.07;39.25;101161.09;105642;1286;62234;-81
2023/11/10 09:01:31;;;;;;;21.50;8.70;;;;;;;19.00;39.04;101156.66;105601;1282;59576;-81
2023/11/10 09:03:59;;;;;;;17.10;8.60;;;;;;;18.91;39.21;101160.02;105652;1283;61270;-82
2023/11/10 09:06:25;;;;;;;13.30;7.80;;;;;;;18.90;39.29;101160.80;105442;1283;61151;-82
2023/11/10 09:08:51;;;;;;;20.10;7.70;;;;;;;18.90;39.34;101163.44;105411;1282;60074;-82
2023/11/10 09:11:17;;;;;;;15.60;7.20;;;;;;;18.91;39.53;101161.98;105368;1283;59389;-83
2023/11/10 09:13:43;;;;;;;19.70;7.60;;;;;;;18.92;39.64;101162.98;105666;1282;61304;-82
2023/11/10 09:16:09;;;;;;;14.90;7.40;;;;;;;18.93;39.63;101153.49;105215;1281;61331;-81
2023/11/10 09:18:34;;;;;;;17.70;6.70;;;;;;;18.93;39.76;101149.36;105563;1284;59282;-81
2023/11/10 09:21:00;;;;;;;17.20;7.00;;;;;;;18.94;39.84;101147.73;105211;1283;61244;-81
2023/11/10 09:23:28;;;;;;;16.60;6.80;;;;;;;18.91;39.71;101141.11;105466;1282;61336;-81
2023/11/10 09:25:56;;;;;;;13.90;6.20;;;;;;;18.90;39.83;101143.64;105648;1283;74499;-82
2023/11/10 09:28:24;;;;;;;15.40;6.20;;;;;;;18.90;39.91;101144.05;105145;1286;61175;-82
2023/11/10 09:30:53;;;;;;;20.40;6.20;;;;;;;18.91;39.92;101138.08;105744;1283;61359;-82
2023/11/10 09:33:21;;;;;;;;;;;;;;;18.92;39.89;101133.38;105488;1282;72655;-82
2023/11/10 09:35:48;;;;;;;15.60;5.20;;;;;;;18.91;39.88;101126.85;106332;1282;74466;-82
2023/11/10 09:38:14;;;;;;;11.30;5.30;;;;;;;18.94;39.81;101127.78;105694;1283;61038;-82
2023/11/10 09:40:40;;;;;;;10.80;4.90;;;;;;;18.95;39.74;101123.95;105372;1281;64765;-81
2023/11/10 09:43:07;;;;;;;11.80;5.20;;;;;;;18.96;39.81;101121.21;105546;1283;61342;-82
2023/11/10 09:45:32;;;;;;;11.60;5.20;;;;;;;18.97;39.78;101117.77;105586;1285;61385;-81
2023/11/10 09:47:58;;;;;;;8.00;5.00;;;;;;;18.97;39.69;101109.38;105605;1282;61012;-81
2023/11/10 09:50:25;;;;;;;11.10;5.20;;;;;;;18.91;39.50;101108.13;105684;1280;62055;-81
2023/11/10 09:52:53;;;;;;;11.80;4.70;;;;;;;18.77;39.56;101104.05;106232;1285;59005;-81
2023/11/10 09:55:20;;;;;;;21.10;6.10;;;;;;;18.73;39.96;101101.59;105841;1284;59850;-82
2023/11/10 09:57:49;;;;;;;29.50;6.60;;;;;;;18.76;40.63;101093.58;105958;1281;59425;-82
2023/11/10 10:00:16;;;;;;;;;;;;;;;18.77;41.12;101093.55;105887;1287;61220;-81
2023/11/10 10:02:43;;;;;;;20.50;5.80;;;;;;;18.80;41.67;101092.65;106259;1282;72808;-81
2023/11/10 10:05:09;;;;;;;24.10;5.80;;;;;;;18.84;41.92;101090.64;106003;1286;74365;-83
2023/11/10 10:07:39;;;;;;;14.00;5.30;;;;;;;18.84;42.11;101086.04;106039;1282;61237;-82
2023/11/10 10:10:09;;;;;;;21.10;5.50;;;;;;;18.87;42.30;101076.73;105904;1282;61331;-82
2023/11/10 10:12:36;;;;;;;18.50;5.70;;;;;;;18.87;42.30;101070.51;105797;1285;71767;-82
2023/11/10 10:15:02;;;;;;;20.90;5.40;;;;;;;18.86;42.39;101060.73;105669;1282;74121;-81
2023/11/10 10:17:37;;;;;;;10.00;4.70;;;;;;;18.88;42.59;101059.77;105786;1281;61478;-82
2023/11/10 10:20:16;;;;;;;12.30;4.80;;;;;;;18.93;42.52;101050.23;105660;1281;61332;-82
2023/11/10 10:22:48;;;;;;;10.70;4.50;;;;;;;18.96;42.36;101040.21;105608;1287;72586;-82
2023/11/10 10:25:15;;;;;;;11.90;5.40;;;;;;;18.92;41.92;101042.96;105640;1287;75584;-82
2023/11/10 10:27:46;;;;;;;10.30;4.50;;;;;;;18.79;41.56;101046.16;105344;1282;60086;-82
2023/11/10 10:30:12;;;;;;;9.20;4.50;;;;;;;18.78;41.63;101040.17;105283;1283;61308;-82
2023/11/10 10:32:38;;;;;;;9.90;4.40;;;;;;;18.79;41.58;101036.52;105447;1282;61395;-81
2023/11/10 10:35:12;;;;;;;13.60;4.30;;;;;;;18.83;41.62;101036.67;105151;1285;74561;-82
2023/11/10 10:37:40;;;;;;;7.30;4.20;;;;;;;18.87;41.58;101026.80;105417;1282;61140;-82
2023/11/10 10:40:09;;;;;;;10.30;3.80;;;;;;;18.92;41.42;101021.91;104966;1282;61352;-81
2023/11/10 10:42:35;;;;;;;8.60;3.80;;;;;;;18.96;41.38;101015.48;105225;1282;73437;-82
2023/11/10 10:45:04;;;;;;;10.70;4.00;;;;;;;18.97;41.29;101012.40;105129;1281;62051;-81
2023/11/10 10:47:36;;;;;;;9.10;4.00;;;;;;;18.99;41.29;101008.88;104880;1280;62555;-82
2023/11/10 10:50:04;;;;;;;14.50;4.60;;;;;;;19.02;41.32;101005.81;104792;1282;61212;-82
2023/11/10 10:52:31;;;;;;;13.10;3.60;;;;;;;19.06;41.45;101000.79;104980;1283;71723;-80
2023/11/10 10:54:57;;;;;;;10.90;3.60;;;;;;;19.12;42.00;100994.36;104873;1284;74525;-81
2023/11/10 10:57:23;;;;;;;11.90;3.70;;;;;;;19.18;42.52;100986.65;105144;1282;61379;-81
2023/11/10 10:59:49;;;;;;;9.10;3.70;;;;;;;19.25;42.80;100981.11;105049;1280;59365;-81
2023/11/10 11:02:17;;;;;;;10.90;3.70;;;;;;;19.28;42.98;100979.30;105325;1282;61365;-81
2023/11/10 11:04:55;;;;;;;14.00;4.20;;;;;;;19.20;42.62;100980.30;105893;1281;61310;-81
2023/11/10 11:07:41;;;;;;;7.90;3.00;;;;;;;19.10;42.25;100979.85;106110;1281;60318;-82